OIAG  Aghajari  Airport

Aghajari,, Iran

Add Bookmark
ICAO OIAG
Type Airport
Status Operational
Latitude
30° 44' 39" N
30.744400
Longitude
49° 40' 37" E
49.677200
Local (DST + 5) UTC (GMT + 4)
May 28, 2015 08:28 May 28, 2015 15:58
Sunrise-Sunset Local UTC
Begin Civil Twilight 05:41 01:11
Sunrise 06:08 01:38
Sunset 08:08 15:38
End Civil Twilight 08:35 16:05
VFR
VFR
MVFR
MVFR
IFR
VFR
LIFR
VFR
Unknown
Unavailable

Current Weather

METAR Observed VFR
OIAG 281400Z 31017KT CAVOK 42/M27 Q1002 Thu, May 28, 2015 @ 14:00 UTC
(1 Hour, 58 Minutes ago)
Visual Flight Rules
Wind Visibility Conditions
310° at 17 knots (31 kph) 10 km or more
  • No significant weather
Temperatures Readings Precipitation
Current Temp
42°C
108°F
Dewpoint
-27°C
-17°F
Humidity 1%
Altimeter 29.59" Hg
Sea Level Pressure 1,002 mb
Field Elevation
29 m
95 ft
None Recorded

Additional weather within a 92.6km radius of OIAG

Map ICAO Location
OIAM 54.4km W/SW (248°)
VFR
VFR
MVFR
MVFR
IFR
VFR
LIFR
VFR
Unknown
Unavailable
-
-

CheckWX.com is intended as a tool to help pilots better visualize weather data. It is not intended as a substitute for an official weather briefing obtained from a Flight Service Station. CheckWX.com does not meet the FAA requirements for an official pre-flight weather briefing. Therefore, it's important that pilots still call and obtain an official FSS pre-flight weather briefing.

© 2007-2015 CheckWX.com
15:58:24 UTC